Time;durP1;ratioP1;P1;durP2;ratioP2;P2;SDS_P1;SDS_P2;PMS_P1;PMS_P2;Temp;Humidity;BMP_temperature;BMP_pressure;BME280_temperature;BME280_humidity;BME280_pressure;Samples;Min_cycle;Max_cycle;Signal;HPM_P1;HPM_P2
2021/12/08 00:02:25;;;;;;;0.30;0.30;;;;;;;7.88;100.00;95895.47;5076750;28;20399;-63
2021/12/08 00:05:28;;;;;;;5.15;0.85;;;;;;;7.92;100.00;95893.06;5091920;28;20118;-62
2021/12/08 00:08:33;;;;;;;0.32;0.30;;;;;;;7.98;100.00;95895.66;5083723;28;20043;-53
2021/12/08 00:14:58;;;;;;;1.65;0.57;;;;;;;7.93;100.00;95902.84;5079523;28;20042;-52
2021/12/08 00:18:04;;;;;;;0.10;0.05;;;;;;;7.97;100.00;95908.03;5091004;28;20042;-57
2021/12/08 00:21:09;;;;;;;20.80;1.00;;;;;;;7.94;100.00;95907.13;5091795;28;20424;-56
2021/12/08 00:24:12;;;;;;;0.85;0.22;;;;;;;7.98;100.00;95906.72;5091527;28;20047;-57
2021/12/08 00:27:14;;;;;;;0.10;0.10;;;;;;;8.01;100.00;95900.09;5092093;28;20097;-57
2021/12/08 00:30:18;;;;;;;0.30;0.30;;;;;;;8.06;100.00;95899.16;5091291;28;20051;-57
2021/12/08 00:33:22;;;;;;;1.65;0.85;;;;;;;8.04;100.00;95896.94;5091799;28;20058;-56
2021/12/08 00:36:31;;;;;;;0.20;0.20;;;;;;;8.05;100.00;95914.31;5091845;28;20511;-57
2021/12/08 00:39:34;;;;;;;16.45;0.50;;;;;;;8.07;100.00;95909.69;5091320;28;20106;-54
2021/12/08 00:42:37;;;;;;;0.35;0.35;;;;;;;8.00;100.00;95895.84;5075322;28;20043;-56
2021/12/08 00:45:40;;;;;;;0.10;0.10;;;;;;;7.93;100.00;95900.09;5091082;28;20074;-54
2021/12/08 00:48:48;;;;;;;0.68;0.32;;;;;;;7.92;100.00;95895.09;5085145;28;20454;-55
2021/12/08 00:51:53;;;;;;;0.20;0.20;;;;;;;7.96;100.00;95895.47;5090878;28;20055;-54
2021/12/08 00:54:56;;;;;;;0.30;0.30;;;;;;;8.00;100.00;95884.75;5078104;28;20043;-53
2021/12/08 01:00:50;;;;;;;1.10;0.70;;;;;;;8.07;100.00;95889.56;5069358;28;20045;-55
2021/12/08 01:03:53;;;;;;;0.20;0.20;;;;;;;8.06;100.00;95877.00;5070646;28;20633;-55
2021/12/08 01:06:56;;;;;;;0.20;0.20;;;;;;;8.06;100.00;95871.44;5056980;28;20043;-55
2021/12/08 01:09:58;;;;;;;0.10;0.00;;;;;;;8.00;100.00;95873.66;5070795;28;20058;-55
2021/12/08 01:13:05;;;;;;;1.52;0.75;;;;;;;7.96;100.00;95884.38;5070370;28;20131;-55
2021/12/08 01:16:09;;;;;;;1.15;0.95;;;;;;;7.87;100.00;95873.84;5070481;28;20102;-55
2021/12/08 01:19:12;;;;;;;0.20;0.20;;;;;;;7.76;100.00;95871.44;5071088;28;20048;-55
2021/12/08 01:22:15;;;;;;;0.63;0.10;;;;;;;7.76;100.00;95877.00;5070774;28;20052;-55
2021/12/08 01:25:19;;;;;;;0.10;0.10;;;;;;;7.72;100.00;95888.44;5071012;28;20044;-56
2021/12/08 01:28:22;;;;;;;0.50;0.50;;;;;;;7.64;100.00;95888.41;5071359;28;20039;-56
2021/12/08 01:31:25;;;;;;;0.25;0.20;;;;;;;7.62;100.00;95885.47;5063343;28;20051;-57
2021/12/08 01:34:28;;;;;;;0.10;0.10;;;;;;;7.58;100.00;95893.41;5074512;28;20093;-57
2021/12/08 01:37:32;;;;;;;0.32;0.32;;;;;;;7.58;100.00;95887.88;5074211;28;20396;-57
2021/12/08 01:40:36;;;;;;;0.57;0.20;;;;;;;7.58;100.00;95868.47;5073855;28;20094;-57
2021/12/08 01:47:05;;;;;;;1.05;0.30;;;;;;;7.57;100.00;95872.56;5046164;28;20419;-57
2021/12/08 01:50:10;;;;;;;0.20;0.20;;;;;;;7.57;100.00;95878.09;5074241;28;20052;-57
2021/12/08 01:53:14;;;;;;;0.10;0.10;;;;;;;7.54;100.00;95884.72;5060041;28;20039;-57
2021/12/08 01:56:19;;;;;;;0.85;0.52;;;;;;;7.55;100.00;95877.16;5074719;28;20160;-57
2021/12/08 01:59:22;;;;;;;0.10;0.10;;;;;;;7.57;100.00;95883.63;5082302;28;20465;-57
2021/12/08 02:02:26;;;;;;;0.25;0.25;;;;;;;7.48;100.00;95892.47;5082180;28;20047;-57
2021/12/08 02:05:29;;;;;;;0.10;0.10;;;;;;;7.43;100.00;95885.06;5094149;28;20169;-57
2021/12/08 02:08:34;;;;;;;1.02;0.30;;;;;;;7.40;100.00;95890.97;5094093;28;20089;-56
2021/12/08 02:11:40;;;;;;;0.38;0.38;;;;;;;7.37;100.00;95892.06;5081512;28;20058;-57
2021/12/08 02:14:43;;;;;;;0.10;0.10;;;;;;;7.39;100.00;95900.56;5093297;28;20123;-57
2021/12/08 02:17:49;;;;;;;0.47;0.45;;;;;;;7.41;100.00;95898.72;5093431;28;20031;-57
2021/12/08 02:20:52;;;;;;;0.10;0.10;;;;;;;7.46;100.00;95897.06;5092841;28;20039;-57
2021/12/08 02:23:59;;;;;;;0.10;0.10;;;;;;;7.42;100.00;95905.75;5093007;28;20054;-57
2021/12/08 02:27:02;;;;;;;0.40;0.40;;;;;;;7.37;100.00;95920.50;5092996;28;20067;-57
2021/12/08 02:30:19;;;;;;;0.10;0.10;;;;;;;7.30;100.00;95914.91;5093838;28;20051;-58
2021/12/08 02:47:07;;;;;;;0.20;0.20;;;;;;;7.00;100.00;95953.53;5093187;28;20046;-58
2021/12/08 02:50:11;;;;;;;0.17;0.17;;;;;;;6.93;100.00;95949.44;5093028;28;20051;-57
2021/12/08 02:53:16;;;;;;;0.10;0.10;;;;;;;6.94;100.00;95952.97;5093044;28;20310;-57
2021/12/08 02:56:19;;;;;;;0.32;0.32;;;;;;;6.93;100.00;95952.22;5093523;28;20407;-58
2021/12/08 02:59:22;;;;;;;0.10;0.10;;;;;;;6.91;100.00;95957.56;5092931;28;20043;-57
2021/12/08 03:02:25;;;;;;;0.20;0.20;;;;;;;6.89;100.00;95960.13;5093367;28;20047;-57
2021/12/08 03:05:29;;;;;;;0.20;0.20;;;;;;;6.86;100.00;95950.16;5093606;28;20043;-57
2021/12/08 03:08:33;;;;;;;0.10;0.10;;;;;;;6.98;100.00;95964.41;5092879;28;20051;-56
2021/12/08 03:11:36;;;;;;;0.20;0.20;;;;;;;7.01;100.00;95953.00;5076995;28;20050;-56
2021/12/08 03:14:40;;;;;;;0.10;0.10;;;;;;;7.02;100.00;95971.06;5092550;28;20082;-56
2021/12/08 03:17:43;;;;;;;0.30;0.30;;;;;;;7.00;100.00;95956.31;5092181;28;20522;-56
2021/12/08 03:20:48;;;;;;;0.55;0.10;;;;;;;7.08;100.00;95960.59;5092608;28;20043;-56
2021/12/08 03:24:11;;;;;;;0.77;0.50;;;;;;;7.04;100.00;95957.44;5079460;28;20092;-56
2021/12/08 03:27:17;;;;;;;;;;;;;;;7.12;100.00;95966.53;5092772;28;20097;-56
2021/12/08 03:30:28;;;;;;;0.20;0.20;;;;;;;7.10;100.00;95960.81;5092559;28;19930;-56
2021/12/08 03:33:31;;;;;;;0.20;0.20;;;;;;;7.16;100.00;95958.59;5092351;28;20078;-55
2021/12/08 03:36:34;;;;;;;3.00;0.63;;;;;;;7.20;100.00;95956.22;5092042;28;20648;-55
2021/12/08 03:39:42;;;;;;;0.13;0.13;;;;;;;7.26;100.00;95954.03;5091910;28;20047;-55
2021/12/08 03:42:47;;;;;;;0.10;0.10;;;;;;;7.28;100.00;95951.44;5091828;28;20070;-56
2021/12/08 03:45:52;;;;;;;0.10;0.10;;;;;;;7.29;100.00;95952.94;5091933;28;20117;-55
2021/12/08 03:48:54;;;;;;;0.40;0.40;;;;;;;7.26;100.00;95958.81;5091994;28;20055;-55
2021/12/08 03:52:00;;;;;;;0.17;0.17;;;;;;;7.28;100.00;95962.53;5091232;28;20062;-55
2021/12/08 03:55:06;;;;;;;0.10;0.10;;;;;;;7.30;100.00;95953.66;5092195;28;20043;-55
2021/12/08 03:58:10;;;;;;;0.10;0.10;;;;;;;7.38;100.00;95963.50;5091667;28;20119;-55
2021/12/08 04:01:13;;;;;;;0.13;0.10;;;;;;;7.41;100.00;95953.34;5092276;28;20042;-55
2021/12/08 04:04:16;;;;;;;0.10;0.10;;;;;;;7.51;100.00;95962.59;5092090;28;20166;-55
2021/12/08 04:07:19;;;;;;;0.10;0.10;;;;;;;7.55;100.00;95974.81;5092314;28;20126;-55
2021/12/08 04:10:22;;;;;;;0.10;0.10;;;;;;;7.52;100.00;95964.81;5079721;28;20077;-55
2021/12/08 04:13:40;;;;;;;0.75;0.75;;;;;;;7.50;100.00;95980.50;5092005;28;20051;-55
2021/12/08 04:17:10;;;;;;;0.32;0.20;;;;;;;7.52;100.00;95983.44;5081844;28;20127;-54
2021/12/08 04:20:20;;;;;;;0.10;0.10;;;;;;;7.54;100.00;95978.84;5077905;28;20035;-54
2021/12/08 04:23:26;;;;;;;0.95;0.32;;;;;;;7.59;100.00;95979.97;5091394;28;20093;-54
2021/12/08 04:26:40;;;;;;;0.20;0.20;;;;;;;7.63;100.00;95970.03;5091390;28;20047;-54
2021/12/08 04:29:48;;;;;;;0.10;0.10;;;;;;;7.61;100.00;95977.41;5088932;28;20491;-54
2021/12/08 04:32:51;;;;;;;0.10;0.10;;;;;;;7.61;100.00;95978.13;5091507;28;20050;-54
2021/12/08 04:35:55;;;;;;;0.25;0.25;;;;;;;7.57;100.00;95972.22;5090944;28;20105;-55
2021/12/08 04:39:01;;;;;;;0.10;0.10;;;;;;;7.53;100.00;95976.63;5091108;28;20463;-54
2021/12/08 04:42:10;;;;;;;0.20;0.20;;;;;;;7.59;100.00;95975.19;5075032;28;20551;-54
2021/12/08 04:45:21;;;;;;;3.50;1.08;;;;;;;7.62;100.00;95968.53;5078636;28;20084;-55
2021/12/08 04:48:52;;;;;;;2.08;1.05;;;;;;;7.59;100.00;95964.09;5091541;28;20042;-54
2021/12/08 05:07:59;;;;;;;2.80;0.43;;;;;;;7.64;100.00;95992.91;5094637;28;20089;-54
2021/12/08 05:11:03;;;;;;;0.40;0.30;;;;;;;7.58;100.00;95990.31;5095137;28;20606;-54
2021/12/08 05:14:15;;;;;;;0.10;0.10;;;;;;;7.58;100.00;95979.22;5094993;28;20430;-54
2021/12/08 05:17:30;;;;;;;0.35;0.35;;;;;;;7.55;100.00;95985.13;5094973;28;20493;-54
2021/12/08 05:20:50;;;;;;;0.20;0.20;;;;;;;7.46;100.00;95974.56;5080860;28;20031;-53
2021/12/08 05:24:00;;;;;;;0.10;0.10;;;;;;;7.51;100.00;95977.16;5094237;28;20104;-54
2021/12/08 05:27:15;;;;;;;0.10;0.10;;;;;;;7.55;100.00;95972.03;5095345;28;20035;-54
2021/12/08 05:30:18;;;;;;;0.10;0.03;;;;;;;7.61;100.00;95971.84;5094967;28;20035;-54
2021/12/08 05:33:23;;;;;;;3.10;0.50;;;;;;;7.59;100.00;95985.50;5094487;28;20083;-55
2021/12/08 05:36:27;;;;;;;7.43;0.82;;;;;;;7.62;100.00;95985.13;5094976;28;20050;-54
2021/12/08 05:39:31;;;;;;;0.20;0.20;;;;;;;7.61;100.00;95989.22;5094730;28;20462;-54
2021/12/08 05:42:35;;;;;;;0.10;0.10;;;;;;;7.37;100.00;95975.84;5094576;28;20050;-54
2021/12/08 05:45:39;;;;;;;11.77;1.27;;;;;;;7.51;100.00;95973.69;5094129;28;20399;-54
2021/12/08 05:48:46;;;;;;;19.42;1.23;;;;;;;7.46;100.00;95972.56;5094407;28;20438;-55
2021/12/08 05:51:52;;;;;;;0.10;0.10;;;;;;;7.40;100.00;95979.53;5093708;28;20047;-56
2021/12/08 05:54:55;;;;;;;14.50;0.50;;;;;;;7.32;100.00;95992.63;5094068;28;20047;-57
2021/12/08 05:57:58;;;;;;;0.10;0.10;;;;;;;7.19;100.00;95993.47;5093873;28;20073;-57
2021/12/08 06:01:34;;;;;;;0.20;0.20;;;;;;;7.10;100.00;95996.03;5062090;28;20059;-57
2021/12/08 06:04:37;;;;;;;6.80;0.50;;;;;;;6.99;100.00;96007.38;5055226;28;20044;-57
2021/12/08 06:07:42;;;;;;;0.20;0.20;;;;;;;6.92;100.00;96010.84;5073558;28;20086;-57
2021/12/08 06:10:45;;;;;;;1.45;0.65;;;;;;;6.78;100.00;96021.25;5058401;28;20039;-56
2021/12/08 06:13:48;;;;;;;0.22;0.22;;;;;;;6.71;100.00;96024.72;5072856;28;20075;-56
2021/12/08 06:16:52;;;;;;;1.17;0.40;;;;;;;6.68;100.00;96029.31;5073494;28;20075;-56
2021/12/08 06:19:56;;;;;;;0.20;0.20;;;;;;;6.65;100.00;96046.22;5061171;28;20051;-57
2021/12/08 06:22:59;;;;;;;0.38;0.15;;;;;;;6.61;100.00;96056.91;5073591;28;20052;-56
2021/12/08 06:26:03;;;;;;;0.20;0.20;;;;;;;6.56;100.00;96049.50;5074071;28;20044;-56
2021/12/08 06:29:11;;;;;;;3.00;1.10;;;;;;;6.52;100.00;96049.09;5073599;28;20099;-56
2021/12/08 06:32:15;;;;;;;1.92;1.02;;;;;;;6.43;100.00;96063.41;5073902;28;20439;-56
2021/12/08 06:35:27;;;;;;;16.30;3.08;;;;;;;6.40;100.00;96064.47;5074028;28;20129;-57
2021/12/08 06:38:30;;;;;;;3.83;2.03;;;;;;;6.39;100.00;96085.09;5073333;28;20204;-56
2021/12/08 06:41:37;;;;;;;6.57;2.45;;;;;;;6.44;100.00;96082.19;5073579;28;20047;-56
2021/12/08 06:44:44;;;;;;;13.70;3.38;;;;;;;6.47;100.00;96085.91;5060568;28;20047;-57
2021/12/08 06:47:49;;;;;;;9.75;1.92;;;;;;;6.41;100.00;96088.78;5073100;28;20367;-57
2021/12/08 06:50:56;;;;;;;16.27;2.45;;;;;;;6.40;100.00;96087.31;5056962;28;20528;-57
2021/12/08 06:54:06;;;;;;;0.63;0.47;;;;;;;6.42;100.00;96101.34;5073134;28;20055;-57
2021/12/08 06:57:17;;;;;;;1.95;1.42;;;;;;;6.44;100.00;96098.03;5058969;28;20090;-57
2021/12/08 07:00:38;;;;;;;11.60;1.95;;;;;;;6.44;100.00;96103.53;5089604;28;20051;-57
2021/12/08 07:04:08;;;;;;;8.88;2.17;;;;;;;6.50;100.00;96118.72;5082701;28;20047;-57
2021/12/08 07:07:17;;;;;;;2.63;1.10;;;;;;;6.53;100.00;96114.88;5093225;28;20130;-57
2021/12/08 07:10:25;;;;;;;1.15;0.43;;;;;;;6.50;100.00;96113.19;5092261;28;20522;-57
2021/12/08 07:13:31;;;;;;;0.73;0.73;;;;;;;6.49;100.00;96122.78;5092735;28;20123;-57
2021/12/08 07:16:39;;;;;;;0.32;0.32;;;;;;;6.50;100.00;96123.50;5092115;28;20135;-56
2021/12/08 07:19:46;;;;;;;0.20;0.20;;;;;;;6.48;100.00;96123.28;5092545;28;20141;-56
2021/12/08 07:22:51;;;;;;;0.52;0.52;;;;;;;6.52;100.00;96134.78;5091971;28;20047;-57
2021/12/08 07:25:57;;;;;;;1.17;0.85;;;;;;;6.56;100.00;96132.41;5092288;28;20066;-57
2021/12/08 07:29:02;;;;;;;1.40;0.20;;;;;;;6.59;100.00;96136.84;5092388;28;20043;-57
2021/12/08 07:32:10;;;;;;;0.20;0.20;;;;;;;6.60;100.00;96127.28;5092673;28;20490;-57
2021/12/08 07:35:23;;;;;;;0.30;0.30;;;;;;;6.57;100.00;96140.16;5092426;28;20552;-57
2021/12/08 07:38:29;;;;;;;0.68;0.57;;;;;;;6.58;100.00;96135.38;5092505;28;20078;-57
2021/12/08 07:41:37;;;;;;;0.10;0.10;;;;;;;6.62;100.00;96147.59;5078397;28;20482;-56
2021/12/08 07:44:40;;;;;;;0.75;0.52;;;;;;;6.62;100.00;96157.91;5092027;28;20046;-56
2021/12/08 07:47:44;;;;;;;0.20;0.20;;;;;;;6.65;100.00;96165.09;5091889;28;20043;-57
2021/12/08 07:51:06;;;;;;;0.90;0.40;;;;;;;6.73;100.00;96165.94;5091901;28;20090;-57
2021/12/08 07:54:09;;;;;;;;;;;;;;;6.80;100.00;96168.75;5080164;28;20047;-57
2021/12/08 07:57:17;;;;;;;0.20;0.20;;;;;;;6.79;100.00;96178.34;5091677;28;19961;-57
2021/12/08 08:00:20;;;;;;;0.22;0.22;;;;;;;6.87;100.00;96181.91;5091762;28;20046;-57
2021/12/08 08:03:25;;;;;;;0.20;0.20;;;;;;;6.87;100.00;96183.94;5091745;28;20078;-58
2021/12/08 08:06:35;;;;;;;0.28;0.28;;;;;;;6.87;100.00;96189.47;5091689;28;20109;-57
2021/12/08 08:09:42;;;;;;;0.35;0.28;;;;;;;6.96;100.00;96213.88;5077138;28;20054;-57
2021/12/08 08:12:49;;;;;;;0.47;0.20;;;;;;;6.97;100.00;96204.31;5091445;28;20096;-56
2021/12/08 08:16:04;;;;;;;0.75;0.20;;;;;;;7.00;100.00;96211.53;5091572;28;20058;-56
2021/12/08 08:19:13;;;;;;;0.25;0.25;;;;;;;7.00;100.00;96219.81;5091773;28;20537;-56
2021/12/08 08:22:23;;;;;;;0.20;0.20;;;;;;;7.01;100.00;96204.72;5091593;28;20097;-56
2021/12/08 08:25:34;;;;;;;0.38;0.30;;;;;;;6.99;100.00;96223.13;5091449;28;20038;-56
2021/12/08 08:28:38;;;;;;;1.08;1.08;;;;;;;7.00;100.00;96230.88;5090744;28;20124;-56
2021/12/08 08:31:51;;;;;;;1.23;0.45;;;;;;;7.08;100.00;96226.16;5075623;28;20473;-56
2021/12/08 08:35:04;;;;;;;0.10;0.10;;;;;;;7.15;100.00;96225.47;5091079;28;20568;-57
2021/12/08 08:38:12;;;;;;;0.32;0.20;;;;;;;7.18;100.00;96234.72;5080102;28;20097;-57
2021/12/08 08:41:19;;;;;;;0.20;0.20;;;;;;;7.22;100.00;96248.97;5090964;28;20054;-57
2021/12/08 08:44:35;;;;;;;0.10;0.10;;;;;;;7.25;100.00;96256.94;5091572;28;20051;-57
2021/12/08 08:47:43;;;;;;;10.43;0.52;;;;;;;7.25;100.00;96267.28;5090724;28;20119;-57
2021/12/08 08:50:51;;;;;;;0.10;0.10;;;;;;;7.31;100.00;96267.88;5091523;28;20095;-57
2021/12/08 08:53:59;;;;;;;0.10;0.10;;;;;;;7.42;100.00;96282.19;5081623;28;20120;-57
2021/12/08 08:57:12;;;;;;;0.47;0.15;;;;;;;7.56;100.00;96282.81;5105731;22;20115;-53
2021/12/08 09:00:26;;;;;;;0.10;0.10;;;;;;;7.62;100.00;96295.25;4972932;28;20719;-49
2021/12/08 09:03:34;;;;;;;0.10;0.10;;;;;;;7.68;100.00;96308.22;4972005;28;20058;-50
2021/12/08 09:06:45;;;;;;;0.10;0.10;;;;;;;7.75;100.00;96326.94;4960315;28;20069;-50
2021/12/08 09:09:50;;;;;;;0.10;0.10;;;;;;;7.79;100.00;96328.06;4953002;28;20082;-50
2021/12/08 09:13:02;;;;;;;0.10;0.10;;;;;;;7.87;100.00;96330.88;4965892;28;20045;-49
2021/12/08 09:16:11;;;;;;;0.10;0.10;;;;;;;7.97;100.00;96348.53;4965728;28;20038;-49
2021/12/08 09:19:21;;;;;;;0.40;0.40;;;;;;;7.96;100.00;96361.63;4956036;28;20060;-49
2021/12/08 09:22:54;;;;;;;1.27;1.00;;;;;;;7.95;100.00;96368.44;4953440;28;20123;-49
2021/12/08 09:26:03;;;;;;;0.10;0.10;;;;;;;7.89;100.00;96378.19;4953627;28;20089;-49
2021/12/08 09:29:17;;;;;;;0.10;0.10;;;;;;;7.89;100.00;96389.25;4956680;28;20058;-50
2021/12/08 09:32:26;;;;;;;0.95;0.20;;;;;;;7.90;100.00;96380.44;4953827;28;20055;-49
2021/12/08 09:35:51;;;;;;;0.90;0.57;;;;;;;7.96;100.00;96391.34;4969290;28;20053;-49
2021/12/08 09:39:05;;;;;;;0.10;0.10;;;;;;;7.98;100.00;96417.25;4972558;28;20054;-48
2021/12/08 09:42:14;;;;;;;0.10;0.10;;;;;;;8.00;100.00;96416.69;4967602;28;20448;-48
2021/12/08 09:45:26;;;;;;;0.10;0.10;;;;;;;8.02;100.00;96434.25;4977065;28;20051;-48
2021/12/08 09:48:30;;;;;;;0.38;0.20;;;;;;;8.11;100.00;96433.03;4956373;28;20438;-51
2021/12/08 09:51:35;;;;;;;2.70;0.65;;;;;;;8.14;100.00;96434.75;4955511;28;20066;-48
2021/12/08 09:54:39;;;;;;;0.10;0.10;;;;;;;8.21;100.00;96458.97;4968656;28;20046;-48
2021/12/08 09:57:43;;;;;;;0.25;0.17;;;;;;;8.17;100.00;96458.59;4964750;28;20106;-48
2021/12/08 10:00:52;;;;;;;0.15;0.10;;;;;;;8.16;100.00;96473.75;4994679;28;20407;-48
2021/12/08 10:03:56;;;;;;;0.10;0.10;;;;;;;8.17;100.00;96469.66;4962500;28;20578;-48
2021/12/08 10:07:02;;;;;;;0.20;0.20;;;;;;;8.10;100.00;96475.91;4974461;28;20467;-48
2021/12/08 10:10:08;;;;;;;1.23;0.30;;;;;;;8.21;100.00;96483.94;4962745;28;20552;-48
2021/12/08 10:13:14;;;;;;;4.60;0.45;;;;;;;8.24;100.00;96485.63;4971443;28;20054;-48
2021/12/08 10:16:17;;;;;;;0.25;0.20;;;;;;;8.32;100.00;96497.53;4965468;28;20132;-48
2021/12/08 10:19:20;;;;;;;0.20;0.20;;;;;;;8.40;100.00;96503.91;4977047;28;20177;-48
2021/12/08 10:22:23;;;;;;;0.20;0.20;;;;;;;8.51;100.00;96517.47;4955766;28;20118;-48
2021/12/08 10:25:25;;;;;;;0.10;0.10;;;;;;;8.48;100.00;96515.81;4966636;28;20460;-48
2021/12/08 10:28:34;;;;;;;0.10;0.10;;;;;;;8.52;100.00;96516.22;4975183;28;20046;-50
2021/12/08 10:31:47;;;;;;;0.10;0.10;;;;;;;8.54;100.00;96527.50;4962765;28;20053;-51
2021/12/08 10:35:04;;;;;;;0.70;0.20;;;;;;;8.66;100.00;96525.94;4955176;28;21263;-50
2021/12/08 10:38:07;;;;;;;2.05;0.47;;;;;;;8.51;100.00;96542.44;4962572;28;20038;-52
2021/12/08 10:41:10;;;;;;;0.10;0.10;;;;;;;8.45;100.00;96561.25;4965940;28;20105;-52
2021/12/08 10:44:14;;;;;;;0.20;0.20;;;;;;;8.48;100.00;96546.31;4956546;28;20119;-52
2021/12/08 10:47:22;;;;;;;0.22;0.22;;;;;;;8.52;100.00;96549.47;4957287;28;20110;-52
2021/12/08 10:57:36;;;;;;;0.20;0.10;;;;;;;8.81;100.00;96572.47;4963411;28;20049;-53
2021/12/08 11:00:39;;;;;;;0.40;0.20;;;;;;;8.89;100.00;96576.78;4964289;28;20403;-52
2021/12/08 11:03:44;;;;;;;2.38;0.30;;;;;;;8.90;100.00;96583.81;4954958;28;20066;-56
2021/12/08 11:06:47;;;;;;;1.40;0.43;;;;;;;8.98;100.00;96595.72;4955467;28;20042;-58
2021/12/08 11:09:50;;;;;;;6.05;1.00;;;;;;;9.04;100.00;96604.66;4954923;28;20098;-58
2021/12/08 11:12:55;;;;;;;0.20;0.20;;;;;;;9.18;100.00;96617.13;4954588;28;20774;-55
2021/12/08 11:16:10;;;;;;;0.20;0.10;;;;;;;9.21;100.00;96620.13;4954445;28;20057;-55
2021/12/08 11:19:20;;;;;;;8.27;0.68;;;;;;;9.04;100.00;96615.75;4954831;28;20109;-55
2021/12/08 11:22:30;;;;;;;3.85;0.93;;;;;;;8.95;100.00;96632.88;4942486;28;20050;-56
2021/12/08 11:25:40;;;;;;;2.38;0.63;;;;;;;9.00;100.00;96643.09;4954308;28;20110;-52
2021/12/08 11:28:51;;;;;;;4.68;0.45;;;;;;;9.08;100.00;96655.00;4954033;28;20152;-50
2021/12/08 11:31:59;;;;;;;3.67;1.30;;;;;;;9.10;100.00;96646.13;4954088;28;20054;-53
2021/12/08 11:35:02;;;;;;;1.60;0.77;;;;;;;9.03;100.00;96653.09;4941702;28;20118;-53
2021/12/08 11:38:05;;;;;;;0.17;0.17;;;;;;;9.04;100.00;96656.63;4954616;28;20130;-53
2021/12/08 11:41:26;;;;;;;1.42;0.82;;;;;;;9.11;100.00;96665.03;4942555;28;20563;-53
2021/12/08 11:44:31;;;;;;;0.43;0.40;;;;;;;9.12;100.00;96672.06;4964824;28;20478;-53
2021/12/08 11:47:35;;;;;;;0.10;0.10;;;;;;;9.10;100.00;96673.88;4953769;28;20070;-52
2021/12/08 11:50:38;;;;;;;3.90;0.75;;;;;;;9.10;100.00;96674.63;4953987;28;20054;-53
2021/12/08 11:53:41;;;;;;;0.17;0.17;;;;;;;9.14;100.00;96686.16;4953674;28;20170;-53
2021/12/08 11:56:44;;;;;;;0.40;0.22;;;;;;;9.15;100.00;96682.09;4953898;28;20050;-53
2021/12/08 12:00:22;;;;;;;0.63;0.35;;;;;;;9.18;100.00;96690.63;4956147;28;20160;-53
2021/12/08 12:03:25;;;;;;;0.30;0.30;;;;;;;9.16;100.00;96688.38;4953798;28;20097;-49
2021/12/08 12:06:28;;;;;;;0.10;0.10;;;;;;;9.14;100.00;96702.06;4957959;28;21230;-52
2021/12/08 12:09:32;;;;;;;0.38;0.38;;;;;;;9.18;100.00;96708.03;4953832;28;20286;-49
2021/12/08 12:12:37;;;;;;;1.15;0.65;;;;;;;9.14;100.00;96697.25;4953499;28;20054;-49
2021/12/08 12:15:45;;;;;;;0.10;0.10;;;;;;;9.13;100.00;96709.66;4953378;28;20109;-49
2021/12/08 12:18:52;;;;;;;1.17;0.40;;;;;;;9.12;100.00;96722.03;4961936;28;20502;-50
2021/12/08 12:22:12;;;;;;;1.65;0.30;;;;;;;9.14;100.00;96719.47;4953921;28;20046;-52
2021/12/08 12:25:36;;;;;;;0.10;0.10;;;;;;;9.22;100.00;96729.88;4951986;28;20391;-53
2021/12/08 12:28:45;;;;;;;0.20;0.20;;;;;;;9.21;100.00;96747.81;4961722;28;20085;-49
2021/12/08 12:31:54;;;;;;;0.10;0.10;;;;;;;9.16;100.00;96744.66;4965746;28;20050;-49
2021/12/08 12:35:14;;;;;;;0.20;0.20;;;;;;;9.14;100.00;96747.22;4953550;28;20042;-59
2021/12/08 12:38:18;;;;;;;0.20;0.20;;;;;;;9.14;100.00;96761.09;4962339;28;20077;-49
2021/12/08 12:41:28;;;;;;;0.10;0.10;;;;;;;9.20;100.00;96768.56;4953359;28;20050;-49
2021/12/08 12:44:32;;;;;;;;;;;;;;;9.16;100.00;96766.84;4953147;28;20364;-49
2021/12/08 12:47:36;;;;;;;0.10;0.10;;;;;;;9.31;100.00;96782.19;4957466;28;20353;-49
2021/12/08 12:50:59;;;;;;;0.80;0.50;;;;;;;9.20;100.00;96782.44;4968794;28;20103;-49
2021/12/08 12:54:03;;;;;;;0.32;0.20;;;;;;;9.18;100.00;96791.31;4961025;28;20045;-49
2021/12/08 12:57:08;;;;;;;0.10;0.10;;;;;;;9.16;100.00;96797.38;4959923;28;20066;-49
2021/12/08 13:00:26;;;;;;;0.10;0.10;;;;;;;9.16;100.00;96794.63;4952987;28;20522;-49
2021/12/08 13:03:38;;;;;;;5.10;0.80;;;;;;;9.20;100.00;96793.53;4963405;28;20097;-48
2021/12/08 13:06:48;;;;;;;0.95;0.63;;;;;;;9.20;100.00;96797.06;4952704;28;20058;-48
2021/12/08 13:09:57;;;;;;;3.40;0.80;;;;;;;9.26;100.00;96796.94;4952700;28;20584;-48
2021/12/08 13:13:15;;;;;;;2.22;0.63;;;;;;;9.20;100.00;96804.66;4962201;28;20097;-48
2021/12/08 13:16:33;;;;;;;0.10;0.10;;;;;;;9.18;100.00;96797.59;4975836;28;20081;-49
2021/12/08 13:19:58;;;;;;;1.48;0.50;;;;;;;9.13;100.00;96814.38;4962600;28;20055;-48
2021/12/08 13:23:04;;;;;;;0.30;0.30;;;;;;;9.04;100.00;96814.84;4953477;28;20069;-49
2021/12/08 13:26:17;;;;;;;0.38;0.30;;;;;;;9.03;100.00;96825.19;4956815;28;20235;-48
2021/12/08 13:29:23;;;;;;;0.10;0.10;;;;;;;9.01;100.00;96827.75;4975640;28;20093;-50
2021/12/08 13:32:46;;;;;;;0.32;0.30;;;;;;;8.95;100.00;96835.47;4960675;28;20101;-53
2021/12/08 13:35:49;;;;;;;0.28;0.28;;;;;;;8.89;100.00;96837.63;4965935;28;20101;-49
2021/12/08 13:38:58;;;;;;;0.47;0.17;;;;;;;8.87;100.00;96839.44;4969855;28;20081;-48
2021/12/08 13:42:10;;;;;;;0.15;0.10;;;;;;;8.88;100.00;96847.22;4967293;28;20117;-48
2021/12/08 13:45:14;;;;;;;4.00;0.45;;;;;;;8.90;100.00;96852.97;4975672;28;20066;-51
2021/12/08 13:48:16;;;;;;;0.40;0.30;;;;;;;8.92;100.00;96861.50;4972421;28;20088;-49
2021/12/08 13:51:21;;;;;;;0.28;0.20;;;;;;;8.84;100.00;96863.47;4956590;28;20050;-48
2021/12/08 13:54:39;;;;;;;0.32;0.20;;;;;;;8.83;100.00;96867.53;4970537;28;20046;-48
2021/12/08 13:57:52;;;;;;;0.20;0.10;;;;;;;8.89;100.00;96879.25;4973517;28;20069;-48
2021/12/08 14:00:59;;;;;;;0.52;0.10;;;;;;;8.87;100.00;96879.03;4967727;28;20058;-48
2021/12/08 14:04:16;;;;;;;0.20;0.20;;;;;;;8.87;100.00;96890.16;4956138;28;20057;-49
2021/12/08 14:07:19;;;;;;;0.10;0.10;;;;;;;8.92;100.00;96902.41;4958361;28;20042;-48
2021/12/08 14:10:34;;;;;;;0.10;0.10;;;;;;;8.92;100.00;96908.69;4975602;28;20101;-48
2021/12/08 14:13:50;;;;;;;0.32;0.22;;;;;;;8.83;100.00;96917.47;4968598;28;20050;-48
2021/12/08 14:16:53;;;;;;;0.20;0.13;;;;;;;8.79;100.00;96921.84;4965515;28;20070;-48
2021/12/08 14:19:56;;;;;;;0.30;0.30;;;;;;;8.79;100.00;96911.47;4956283;28;20665;-49
2021/12/08 14:23:02;;;;;;;3.45;0.52;;;;;;;8.56;100.00;96921.53;4956941;28;20130;-48
2021/12/08 14:26:10;;;;;;;0.47;0.05;;;;;;;8.42;100.00;96933.91;4965636;28;20062;-51
2021/12/08 14:29:20;;;;;;;0.55;0.25;;;;;;;8.36;100.00;96936.75;4965509;28;20052;-51
2021/12/08 14:32:23;;;;;;;0.10;0.10;;;;;;;8.34;100.00;96935.78;4955370;28;20518;-51
2021/12/08 14:35:26;;;;;;;0.10;0.10;;;;;;;8.29;100.00;96950.53;4958687;28;20078;-51
2021/12/08 14:38:29;;;;;;;0.30;0.30;;;;;;;8.26;100.00;96954.34;4984644;28;20057;-50
2021/12/08 14:41:34;;;;;;;1.75;0.50;;;;;;;8.20;100.00;96956.44;4955080;28;20436;-49
2021/12/08 14:44:43;;;;;;;0.20;0.20;;;;;;;8.11;100.00;96970.69;4955760;28;20383;-48
2021/12/08 14:47:51;;;;;;;1.27;0.40;;;;;;;8.02;100.00;96968.31;4961636;28;20113;-48
2021/12/08 14:50:54;;;;;;;0.10;0.10;;;;;;;8.02;100.00;96976.63;4959844;28;20050;-48
2021/12/08 14:54:18;;;;;;;0.20;0.20;;;;;;;7.97;100.00;96978.22;4962870;28;20090;-48
2021/12/08 14:57:26;;;;;;;0.10;0.10;;;;;;;7.97;100.00;96992.06;4972608;28;20054;-48
2021/12/08 15:00:32;;;;;;;0.10;0.10;;;;;;;7.97;100.00;96994.09;4955430;28;20094;-48
2021/12/08 15:03:40;;;;;;;0.13;0.13;;;;;;;8.10;100.00;97002.47;4974465;28;20584;-48
2021/12/08 15:06:55;;;;;;;0.10;0.10;;;;;;;8.18;100.00;97006.88;4961342;28;20094;-48
2021/12/08 15:10:05;;;;;;;0.30;0.10;;;;;;;8.12;100.00;97013.78;4955572;28;20041;-48
2021/12/08 15:13:25;;;;;;;4.55;0.60;;;;;;;8.13;100.00;97029.13;4970852;28;20093;-48
2021/12/08 15:16:29;;;;;;;0.10;0.10;;;;;;;8.12;100.00;97033.19;4955010;28;20098;-48
2021/12/08 15:19:33;;;;;;;0.10;0.10;;;;;;;8.11;100.00;97040.75;4957717;28;20057;-48
2021/12/08 15:22:43;;;;;;;0.30;0.30;;;;;;;8.13;100.00;97042.97;4961726;28;20089;-48
2021/12/08 15:25:47;;;;;;;0.10;0.10;;;;;;;7.85;100.00;97037.09;4970431;28;20075;-48
2021/12/08 15:28:50;;;;;;;0.63;0.40;;;;;;;7.64;100.00;97031.34;4956303;28;20415;-48
2021/12/08 15:31:59;;;;;;;0.10;0.10;;;;;;;7.55;100.00;97053.88;4954523;29;20054;-48